createdAt,value
2022-09-06T00:01:12.001Z,86.70
2022-09-06T00:03:39.310Z,86.30
2022-09-06T00:06:12.181Z,87.00
2022-09-06T00:08:39.831Z,85.10
2022-09-06T00:11:07.797Z,84.20
2022-09-06T00:13:35.282Z,84.50
2022-09-06T00:16:11.062Z,84.80
2022-09-06T00:18:38.017Z,84.90
2022-09-06T00:21:13.372Z,84.90
2022-09-06T00:23:40.227Z,85.10
2022-09-06T00:26:06.970Z,85.60
2022-09-06T00:28:33.715Z,86.00
2022-09-06T00:31:09.308Z,85.50
2022-09-06T00:33:36.257Z,85.00
2022-09-06T00:36:03.509Z,84.90
2022-09-06T00:38:30.921Z,85.40
2022-09-06T00:40:58.192Z,85.20
2022-09-06T00:43:25.108Z,85.30
2022-09-06T00:45:55.639Z,85.80
2022-09-06T00:48:25.032Z,85.90
2022-09-06T00:51:01.082Z,85.80
2022-09-06T00:53:28.648Z,86.20
2022-09-06T00:55:56.106Z,86.70
2022-09-06T00:58:23.837Z,87.00
2022-09-06T01:00:51.010Z,87.10
2022-09-06T01:03:19.060Z,87.40
2022-09-06T01:06:05.078Z,87.20
2022-09-06T01:08:54.128Z,87.20
2022-09-06T01:11:41.407Z,87.00
2022-09-06T01:14:35.949Z,87.00
2022-09-06T01:17:19.468Z,87.20
2022-09-06T01:19:48.921Z,89.30
2022-09-06T01:22:40.404Z,90.10
2022-09-06T01:25:45.393Z,90.30
2022-09-06T01:28:27.449Z,90.50
2022-09-06T01:31:20.023Z,90.80
2022-09-06T01:33:49.800Z,91.50
2022-09-06T01:36:22.102Z,91.90
2022-09-06T01:38:49.515Z,92.40
2022-09-06T01:41:16.288Z,92.70
2022-09-06T01:43:46.727Z,93.00
2022-09-06T01:46:44.832Z,93.20
2022-09-06T01:49:38.628Z,93.40
2022-09-06T01:52:56.224Z,93.70
2022-09-06T01:55:51.696Z,94.20
2022-09-06T11:10:14.351Z,68.30
2022-09-06T11:13:07.841Z,68.40
2022-09-06T11:16:02.826Z,69.90
2022-09-06T11:18:44.089Z,67.90
2022-09-06T11:21:35.472Z,68.20
2022-09-06T11:24:39.517Z,67.60
2022-09-06T11:27:33.623Z,65.80
2022-09-06T11:30:02.651Z,64.30
2022-09-06T11:32:48.543Z,64.70
2022-09-06T11:35:32.853Z,65.10
2022-09-06T11:38:00.791Z,64.60
2022-09-06T11:40:36.881Z,63.50
2022-09-06T11:43:03.813Z,63.80
2022-09-06T11:45:46.224Z,64.60
2022-09-06T11:48:33.949Z,62.60
2022-09-06T11:51:03.795Z,61.60
2022-09-06T11:53:55.036Z,64.10
2022-09-06T11:56:25.030Z,63.00
2022-09-06T11:58:57.483Z,60.90
2022-09-06T12:01:26.846Z,61.40
2022-09-06T12:07:04.364Z,60.80
2022-09-06T12:09:31.043Z,59.90
2022-09-06T12:11:58.904Z,60.40
2022-09-06T12:14:40.311Z,59.50
2022-09-06T12:17:07.806Z,58.50
2022-09-06T12:19:48.588Z,59.60
2022-09-06T12:22:28.811Z,59.50
2022-09-06T12:24:55.584Z,60.00
2022-09-06T12:27:51.511Z,60.40
2022-09-06T12:30:50.897Z,60.90
2022-09-06T12:33:25.525Z,61.00
2022-09-06T12:38:25.512Z,61.30
2022-09-06T12:40:58.144Z,61.70
2022-09-06T12:43:31.053Z,61.90
2022-09-06T12:45:59.781Z,62.30
2022-09-06T12:48:28.247Z,61.90
2022-09-06T12:51:03.251Z,62.00
2022-09-06T12:53:31.641Z,60.80
2022-09-06T12:56:12.626Z,60.00
2022-09-06T12:58:41.788Z,59.60
2022-09-06T13:01:17.608Z,61.00
2022-09-06T13:04:05.076Z,60.60
2022-09-06T13:06:39.187Z,59.00
2022-09-06T13:09:13.154Z,58.80
2022-09-06T13:11:45.161Z,58.40
2022-09-06T13:14:25.572Z,56.60
2022-09-06T13:16:57.161Z,55.70
2022-09-06T13:19:41.983Z,55.60
2022-09-06T13:22:13.374Z,55.70
2022-09-06T13:24:47.097Z,56.90
2022-09-06T13:27:26.004Z,57.10
2022-09-06T13:30:01.070Z,57.50
2022-09-06T13:32:28.788Z,56.90
2022-09-06T13:34:57.352Z,56.90
2022-09-06T13:37:29.802Z,54.00
2022-09-06T13:39:57.632Z,53.00
2022-09-06T13:42:33.231Z,50.80
2022-09-06T13:45:30.359Z,49.70
2022-09-06T13:48:13.085Z,50.70
2022-09-06T13:50:44.641Z,49.30
2022-09-06T17:01:02.572Z,48.80
2022-09-06T17:03:30.004Z,52.30
2022-09-06T17:05:56.972Z,52.40
2022-09-06T17:08:24.242Z,52.10
2022-09-06T17:10:51.204Z,56.70
2022-09-06T17:13:18.062Z,52.90
2022-09-06T17:16:11.607Z,53.00
2022-09-06T17:18:39.183Z,53.50
2022-09-06T17:21:07.509Z,53.00
2022-09-06T17:23:35.847Z,55.10
2022-09-06T17:26:03.916Z,53.10
2022-09-06T17:28:34.778Z,53.40
2022-09-06T17:31:03.790Z,54.40
2022-09-06T17:33:32.036Z,54.20
2022-09-06T17:36:13.518Z,53.70
2022-09-06T17:38:42.930Z,54.10
2022-09-06T17:41:20.068Z,54.20
2022-09-06T17:43:47.475Z,55.10
2022-09-06T17:46:15.284Z,54.50
2022-09-06T17:48:43.572Z,55.00
2022-09-06T17:51:11.714Z,55.50
2022-09-06T17:53:39.338Z,55.20
2022-09-06T17:56:09.043Z,55.00
2022-09-06T17:58:36.757Z,55.80
2022-09-06T18:01:05.371Z,56.10
2022-09-06T18:03:32.688Z,56.30
2022-09-06T18:06:07.894Z,56.60
2022-09-06T18:08:36.163Z,56.60
2022-09-06T18:11:18.020Z,57.00
2022-09-06T18:13:46.097Z,57.70
2022-09-06T18:16:14.384Z,58.10
2022-09-06T18:18:41.889Z,57.90
2022-09-06T18:23:36.585Z,58.30
2022-09-06T18:26:07.952Z,59.80
2022-09-06T18:28:37.041Z,59.10
2022-09-06T18:31:08.982Z,59.50
2022-09-06T18:33:36.775Z,59.50
2022-09-06T18:36:07.628Z,59.60
2022-09-06T18:38:35.793Z,59.80
2022-09-06T18:41:04.783Z,59.80
2022-09-06T18:43:36.693Z,59.90
2022-09-06T18:46:12.808Z,60.30
2022-09-06T18:48:40.761Z,61.50
2022-09-06T18:51:16.273Z,61.60
2022-09-06T18:53:44.875Z,61.00
2022-09-06T18:56:13.884Z,61.00
2022-09-06T18:58:41.664Z,61.80
2022-09-06T19:01:11.377Z,62.20
2022-09-06T19:03:40.087Z,62.20
2022-09-06T19:06:10.542Z,62.60
2022-09-06T19:08:37.824Z,62.70
2022-09-06T19:11:17.047Z,62.80
2022-09-06T19:13:45.489Z,63.10
2022-09-06T19:16:13.956Z,63.90
2022-09-06T19:18:41.569Z,64.20
2022-09-06T19:21:18.559Z,64.00
2022-09-06T19:23:48.341Z,64.50
2022-09-06T19:26:17.982Z,64.50
2022-09-06T19:28:53.415Z,64.70
2022-09-06T19:31:20.535Z,65.20
2022-09-06T19:33:48.889Z,65.10
2022-09-06T19:36:16.998Z,65.00
2022-09-06T19:39:03.498Z,64.70
2022-09-06T19:41:32.903Z,65.30
2022-09-06T19:44:00.278Z,65.30
2022-09-06T19:46:27.684Z,65.70
2022-09-06T19:48:58.789Z,65.20
2022-09-06T19:51:25.826Z,65.40
2022-09-06T19:53:57.473Z,65.20
2022-09-06T19:56:27.037Z,65.50
2022-09-06T19:58:55.756Z,66.10
2022-09-06T20:01:25.387Z,66.20
2022-09-06T20:03:52.785Z,66.20
2022-09-06T20:06:19.918Z,65.50
2022-09-06T20:08:50.929Z,66.20
2022-09-06T20:11:18.498Z,66.80
2022-09-06T20:13:45.683Z,66.80
2022-09-06T20:16:13.197Z,67.00
2022-09-06T20:18:40.947Z,67.00
2022-09-06T20:21:08.731Z,67.60
2022-09-06T20:23:36.693Z,68.00
2022-09-06T20:26:08.825Z,67.90
2022-09-06T20:28:37.035Z,68.00
2022-09-06T20:31:09.999Z,68.40
2022-09-06T20:33:37.412Z,68.50
2022-09-06T20:36:07.022Z,68.50
2022-09-06T20:38:36.354Z,68.90
2022-09-06T23:27:43.114Z,67.40
2022-09-06T23:30:11.181Z,81.70
2022-09-06T23:32:38.458Z,81.20
2022-09-06T23:54:52.431Z,99.90
